createdAt,value
2023-05-22T00:00:55.208Z,100869.08
2023-05-22T00:05:58.995Z,100863.86
2023-05-22T00:11:00.680Z,100862.27
2023-05-22T00:16:03.116Z,100859.48
2023-05-22T00:21:04.940Z,100859.36
2023-05-22T00:26:06.471Z,100854.92
2023-05-22T00:31:08.223Z,100856.17
2023-05-22T00:36:09.918Z,100852.13
2023-05-22T00:41:11.477Z,100853.55
2023-05-22T00:46:13.095Z,100852.88
2023-05-22T00:51:15.468Z,100851.91
2023-05-22T00:56:17.778Z,100849.03
2023-05-22T01:01:19.871Z,100850.45
2023-05-22T01:06:24.383Z,100852.55
2023-05-22T01:11:29.894Z,100850.23
2023-05-22T01:16:46.897Z,100845.70
2023-05-22T01:22:25.548Z,100846.91
2023-05-22T01:27:58.429Z,100846.72
2023-05-22T01:33:00.955Z,100849.67
2023-05-22T01:38:03.689Z,100856.54
2023-05-22T01:43:05.427Z,100856.01
2023-05-22T01:48:07.514Z,100855.56
2023-05-22T01:53:15.516Z,100857.52
2023-05-22T01:58:29.332Z,100856.64
2023-05-22T02:03:33.654Z,100860.08
2023-05-22T02:08:40.487Z,100860.83
2023-05-22T02:13:43.008Z,100862.94
2023-05-22T02:18:45.509Z,100861.44
2023-05-22T02:23:47.399Z,100859.73
2023-05-22T02:28:48.938Z,100858.94
2023-05-22T02:33:50.509Z,100858.27
2023-05-22T02:38:52.769Z,100858.01
2023-05-22T02:43:54.361Z,100852.89
2023-05-22T02:48:55.939Z,100850.39
2023-05-22T02:53:57.484Z,100848.94
2023-05-22T02:58:59.270Z,100847.34
2023-05-22T03:04:00.808Z,100846.77
2023-05-22T03:09:04.228Z,100843.23
2023-05-22T03:14:05.780Z,100836.98
2023-05-22T03:19:10.606Z,100827.35
2023-05-22T03:24:14.782Z,100820.52
2023-05-22T03:29:16.395Z,100817.56
2023-05-22T03:34:18.004Z,100806.46
2023-05-22T03:39:19.663Z,100805.26
2023-05-22T03:44:21.258Z,100812.95
2023-05-22T03:49:22.845Z,100818.79
2023-05-22T03:54:24.538Z,100820.32
2023-05-22T03:59:26.119Z,100820.31
2023-05-22T04:04:30.490Z,100820.71
2023-05-22T04:09:32.385Z,100821.03
2023-05-22T04:14:34.008Z,100823.50
2023-05-22T04:19:35.558Z,100819.70
2023-05-22T04:24:39.872Z,100819.11
2023-05-22T04:29:41.692Z,100814.70
2023-05-22T04:34:44.931Z,100812.73
2023-05-22T04:39:47.112Z,100809.77
2023-05-22T04:44:48.665Z,100810.39
2023-05-22T04:49:51.477Z,100806.86
2023-05-22T04:54:53.082Z,100808.27
2023-05-22T04:59:54.694Z,100807.66
2023-05-22T05:04:56.245Z,100804.20
2023-05-22T05:09:57.754Z,100809.79
2023-05-22T05:14:59.349Z,100807.72
2023-05-22T05:20:01.002Z,100808.95
2023-05-22T05:25:03.996Z,100809.09
2023-05-22T05:30:06.825Z,100814.61
2023-05-22T05:35:08.627Z,100814.08
2023-05-22T05:40:13.400Z,100819.98
2023-05-22T05:45:15.135Z,100821.95
2023-05-22T05:50:17.283Z,100822.02
2023-05-22T05:55:18.818Z,100809.73
2023-05-22T06:00:22.829Z,100812.30
2023-05-22T06:05:24.470Z,100810.62
2023-05-22T06:10:26.435Z,100806.92
2023-05-22T06:15:27.963Z,100809.23
2023-05-22T06:20:29.663Z,100799.62
2023-05-22T06:25:31.312Z,100797.98
2023-05-22T06:30:40.076Z,100801.05
2023-05-22T06:35:42.376Z,100801.91
2023-05-22T06:40:43.964Z,100803.32
2023-05-22T06:45:45.569Z,100799.27
2023-05-22T06:50:47.752Z,100798.23
2023-05-22T06:55:49.308Z,100802.70
2023-05-22T07:00:52.405Z,100800.64
2023-05-22T07:05:56.840Z,100796.59
2023-05-22T07:10:58.794Z,100796.20
2023-05-22T07:16:00.538Z,100797.11
2023-05-22T07:21:03.039Z,100796.38
2023-05-22T07:26:04.751Z,100792.94
2023-05-22T07:31:06.758Z,100785.94
2023-05-22T07:36:08.480Z,100786.56
2023-05-22T07:41:09.990Z,100783.10
2023-05-22T07:46:14.469Z,100783.27
2023-05-22T07:51:16.190Z,100783.64
2023-05-22T07:56:18.075Z,100782.36
2023-05-22T08:01:19.805Z,100780.28
2023-05-22T08:06:23.778Z,100776.40
2023-05-22T08:11:28.840Z,100771.16
2023-05-22T08:16:33.356Z,100768.73
2023-05-22T08:21:35.948Z,100765.69
2023-05-22T08:26:41.347Z,100762.26
2023-05-22T08:31:42.917Z,100759.93
2023-05-22T08:36:44.560Z,100755.92
2023-05-22T08:41:47.453Z,100756.13
2023-05-22T08:46:51.796Z,100750.95
2023-05-22T08:52:00.220Z,100748.92
2023-05-22T08:57:02.369Z,100743.15
2023-05-22T09:02:06.963Z,100738.98
2023-05-22T09:07:09.252Z,100738.14
2023-05-22T09:12:11.208Z,100734.49
2023-05-22T09:17:15.614Z,100734.42
2023-05-22T09:22:17.513Z,100731.77
2023-05-22T09:27:23.533Z,100729.20
2023-05-22T09:32:25.489Z,100724.30
2023-05-22T09:37:28.808Z,100717.80
2023-05-22T09:42:30.963Z,100719.63
2023-05-22T09:47:34.234Z,100714.39
2023-05-22T09:52:37.613Z,100715.15
2023-05-22T09:57:43.029Z,100710.02
2023-05-22T10:02:51.999Z,100704.37
2023-05-22T10:07:57.181Z,100698.48
2023-05-22T10:13:06.491Z,100701.37
2023-05-22T10:18:08.665Z,100700.09
2023-05-22T10:23:11.353Z,100693.36
2023-05-22T10:28:23.547Z,100693.62
2023-05-22T10:33:34.069Z,100688.21
2023-05-22T10:38:59.869Z,100687.63
2023-05-22T10:44:04.211Z,100689.25
2023-05-22T10:49:06.021Z,100685.65
2023-05-22T10:54:07.687Z,100678.11
2023-05-22T10:59:09.244Z,100679.01
2023-05-22T11:04:12.274Z,100671.77
2023-05-22T11:09:17.268Z,100666.77
2023-05-22T11:14:20.736Z,100665.75
2023-05-22T11:19:23.824Z,100662.62
2023-05-22T11:24:25.908Z,100659.48
2023-05-22T11:29:29.320Z,100649.52
2023-05-22T11:34:34.092Z,100652.92
2023-05-22T11:39:35.626Z,100655.19
2023-05-22T11:44:39.562Z,100656.33
2023-05-22T11:49:44.787Z,100648.83
2023-05-22T11:54:47.515Z,100647.52
2023-05-22T11:59:49.684Z,100641.25
2023-05-22T12:04:58.541Z,100637.33
2023-05-22T12:10:01.358Z,100639.54
2023-05-22T12:15:06.307Z,100634.66
2023-05-22T12:20:13.105Z,100629.35
2023-05-22T12:25:17.557Z,100623.42
2023-05-22T12:30:26.707Z,100624.98
2023-05-22T12:35:29.043Z,100620.20
2023-05-22T12:40:30.566Z,100616.36
2023-05-22T12:45:32.170Z,100612.73
2023-05-22T12:50:33.729Z,100609.03
2023-05-22T12:55:36.742Z,100599.73
2023-05-22T13:00:42.941Z,100601.02
2023-05-22T13:05:45.207Z,100601.45
2023-05-22T13:10:46.708Z,100596.08
2023-05-22T13:15:48.291Z,100595.70
2023-05-22T13:20:49.985Z,100597.55
2023-05-22T13:25:51.668Z,100593.17
2023-05-22T13:30:54.231Z,100586.28
2023-05-22T13:35:55.970Z,100584.55
2023-05-22T13:40:58.112Z,100582.22
2023-05-22T13:45:59.646Z,100579.33
2023-05-22T13:51:01.203Z,100581.23
2023-05-22T13:56:02.755Z,100574.64
2023-05-22T14:01:04.348Z,100573.61
2023-05-22T14:06:06.316Z,100566.98
2023-05-22T14:11:07.953Z,100558.84
2023-05-22T14:16:09.679Z,100555.85
2023-05-22T14:21:11.264Z,100551.32
2023-05-22T14:26:14.380Z,100548.45
2023-05-22T14:31:17.195Z,100545.31
2023-05-22T14:36:18.797Z,100542.51
2023-05-22T14:41:21.361Z,100539.02
2023-05-22T14:46:22.908Z,100532.59
2023-05-22T14:51:24.686Z,100536.39
2023-05-22T14:56:28.801Z,100530.80
2023-05-22T15:01:30.741Z,100533.13
2023-05-22T15:06:32.712Z,100534.14
2023-05-22T15:11:34.541Z,100530.80
2023-05-22T15:16:36.375Z,100529.09
2023-05-22T15:21:38.010Z,100525.19
2023-05-22T15:26:42.323Z,100522.92
2023-05-22T15:31:43.941Z,100516.38
2023-05-22T15:36:45.555Z,100510.57
2023-05-22T15:41:58.253Z,100501.33
2023-05-22T15:47:07.197Z,100501.09
2023-05-22T15:52:08.788Z,100498.27
2023-05-22T15:57:10.580Z,100495.20
2023-05-22T16:02:12.178Z,100490.21
2023-05-22T16:07:13.721Z,100480.48
2023-05-22T16:12:15.570Z,100480.38
2023-05-22T16:17:17.118Z,100482.45
2023-05-22T16:22:19.465Z,100474.70
2023-05-22T16:27:21.090Z,100472.01
2023-05-22T16:32:24.325Z,100466.66
2023-05-22T16:37:26.050Z,100465.66
2023-05-22T16:42:27.778Z,100467.20
2023-05-22T16:47:30.214Z,100463.50
2023-05-22T16:52:31.791Z,100466.35
2023-05-22T16:57:33.294Z,100463.14
2023-05-22T17:02:35.536Z,100460.80
2023-05-22T17:07:37.757Z,100463.38
2023-05-22T17:12:39.393Z,100471.66
2023-05-22T17:17:41.073Z,100470.77
2023-05-22T17:22:42.706Z,100474.34
2023-05-22T17:27:44.850Z,100473.73
2023-05-22T17:32:46.679Z,100477.41
2023-05-22T17:37:48.395Z,100476.39
2023-05-22T17:42:50.011Z,100478.77
2023-05-22T17:47:51.638Z,100480.44
2023-05-22T17:52:53.448Z,100472.55
2023-05-22T17:57:55.026Z,100474.23
2023-05-22T18:02:56.625Z,100469.98
2023-05-22T18:07:58.311Z,100468.29
2023-05-22T18:12:59.851Z,100466.61
2023-05-22T18:18:03.620Z,100463.47
2023-05-22T18:23:05.770Z,100457.80
2023-05-22T18:28:08.782Z,100455.14
2023-05-22T18:33:12.083Z,100455.21
2023-05-22T18:38:13.689Z,100462.78
2023-05-22T18:43:15.429Z,100463.81
2023-05-22T18:48:16.973Z,100465.98
2023-05-22T18:53:18.822Z,100470.20
2023-05-22T18:58:20.650Z,100470.02
2023-05-22T19:03:22.293Z,100470.46
2023-05-22T19:08:26.649Z,100466.34
2023-05-22T19:13:29.293Z,100466.36
2023-05-22T19:18:31.081Z,100470.52
2023-05-22T19:23:33.086Z,100471.80
2023-05-22T19:28:34.643Z,100476.77
2023-05-22T19:33:36.554Z,100475.98
2023-05-22T19:38:38.212Z,100482.70
2023-05-22T19:43:39.809Z,100483.95
2023-05-22T19:48:41.664Z,100478.30
2023-05-22T19:53:44.403Z,100469.04
2023-05-22T19:58:45.969Z,100468.96
2023-05-22T20:03:47.789Z,100475.31
2023-05-22T20:08:49.452Z,100469.13
2023-05-22T20:13:54.546Z,100470.10
2023-05-22T20:18:56.409Z,100468.38
2023-05-22T20:23:58.043Z,100467.96
2023-05-22T20:28:59.564Z,100467.11
2023-05-22T20:34:02.022Z,100462.26
2023-05-22T20:39:03.862Z,100460.67
2023-05-22T20:44:06.451Z,100456.38
2023-05-22T20:49:08.030Z,100455.49
2023-05-22T20:54:09.543Z,100459.84
2023-05-22T20:59:11.453Z,100463.16
2023-05-22T21:04:13.146Z,100462.59
2023-05-22T21:09:14.837Z,100455.18
2023-05-22T21:14:17.411Z,100460.52
2023-05-22T21:19:19.206Z,100459.56
2023-05-22T21:24:21.888Z,100455.89
2023-05-22T21:29:23.428Z,100451.88
2023-05-22T21:34:24.994Z,100453.95
2023-05-22T21:39:26.527Z,100450.52
2023-05-22T21:44:28.065Z,100445.64
2023-05-22T21:49:29.593Z,100444.77
2023-05-22T21:54:31.116Z,100446.85
2023-05-22T21:59:32.683Z,100444.45
2023-05-22T22:04:34.248Z,100446.55
2023-05-22T22:09:35.803Z,100451.08
2023-05-22T22:14:37.416Z,100453.38
2023-05-22T22:19:41.824Z,100450.00
2023-05-22T22:24:43.346Z,100446.17
2023-05-22T22:29:44.939Z,100444.52
2023-05-22T22:34:47.025Z,100443.03
2023-05-22T22:39:48.568Z,100441.00
2023-05-22T22:44:50.401Z,100435.55
2023-05-22T22:49:52.720Z,100436.80
2023-05-22T22:54:54.260Z,100439.79
2023-05-22T22:59:57.312Z,100437.54
2023-05-22T23:04:59.048Z,100433.98
2023-05-22T23:10:00.757Z,100429.36
2023-05-22T23:15:03.049Z,100426.65
2023-05-22T23:20:05.942Z,100421.10
2023-05-22T23:25:07.992Z,100416.23
2023-05-22T23:30:10.261Z,100408.91
2023-05-22T23:35:11.860Z,100404.19
2023-05-22T23:40:13.432Z,100403.11
2023-05-22T23:45:14.971Z,100404.88
2023-05-22T23:50:16.688Z,100396.21
2023-05-22T23:55:18.337Z,100387.79
